createdAt,value
2022-11-14T04:01:19.475Z,8.80
2022-11-14T04:03:46.769Z,7.37
2022-11-14T04:06:15.238Z,7.77
2022-11-14T04:08:42.452Z,6.83
2022-11-14T04:11:09.638Z,8.80
2022-11-14T04:13:36.940Z,9.10
2022-11-14T04:16:15.975Z,60.37
2022-11-14T04:19:15.861Z,7.27
2022-11-14T04:21:52.898Z,7.17
2022-11-14T04:24:25.535Z,6.73
2022-11-14T04:27:00.873Z,6.77
2022-11-14T04:29:33.902Z,7.50
2022-11-14T04:32:18.667Z,7.17
2022-11-14T04:34:53.951Z,6.70
2022-11-14T04:41:12.967Z,6.50
2022-11-14T04:43:50.522Z,6.77
2022-11-14T04:46:18.442Z,5.90
2022-11-14T04:48:45.960Z,6.13
2022-11-14T04:51:13.434Z,6.73
2022-11-14T04:53:40.526Z,7.23
2022-11-14T05:08:04.389Z,6.80
2022-11-14T05:37:12.651Z,6.90
2022-11-14T05:42:38.075Z,6.63
2022-11-14T05:56:26.535Z,7.60
2022-11-14T06:16:22.118Z,7.37
2022-11-14T06:20:10.255Z,7.60
2022-11-14T06:22:40.840Z,6.30
2022-11-14T06:25:08.737Z,7.90
2022-11-14T06:27:35.921Z,6.80
2022-11-14T06:30:03.558Z,7.03
2022-11-14T06:32:30.719Z,7.33
2022-11-14T06:34:57.854Z,7.50
2022-11-14T06:37:25.020Z,7.47
2022-11-14T06:39:52.151Z,7.90
2022-11-14T06:42:19.305Z,8.97
2022-11-14T06:44:46.456Z,9.80
2022-11-14T06:47:13.655Z,9.53
2022-11-14T06:49:41.210Z,9.67
2022-11-14T06:52:08.280Z,9.47
2022-11-14T06:54:35.525Z,8.43
2022-11-14T06:57:02.751Z,9.93
2022-11-14T06:59:29.963Z,9.40
2022-11-14T07:01:57.547Z,8.67
2022-11-14T07:04:24.634Z,9.20
2022-11-14T07:06:51.929Z,8.20
2022-11-14T07:09:19.143Z,9.33
2022-11-14T07:11:47.627Z,9.10
2022-11-14T07:14:15.244Z,7.07
2022-11-14T07:16:42.714Z,8.80
2022-11-14T07:19:10.835Z,7.67
2022-11-14T07:21:38.214Z,7.30
2022-11-14T07:24:05.971Z,6.90
2022-11-14T07:26:33.531Z,6.80
2022-11-14T07:29:02.796Z,7.87
2022-11-14T07:31:30.872Z,7.10
2022-11-14T07:33:57.992Z,7.17
2022-11-14T07:36:25.217Z,7.77
2022-11-14T07:38:52.812Z,7.77
2022-11-14T07:41:20.053Z,7.80
2022-11-14T07:43:47.341Z,7.07
2022-11-14T07:46:17.172Z,8.23
2022-11-14T07:48:45.348Z,8.87
2022-11-14T07:51:18.329Z,7.70
2022-11-14T07:53:45.835Z,7.20
2022-11-14T07:56:13.173Z,7.23
2022-11-14T07:58:41.788Z,8.20
2022-11-14T08:01:11.324Z,7.27
2022-11-14T08:03:45.042Z,7.67
2022-11-14T08:06:15.359Z,8.40
2022-11-14T08:08:42.698Z,9.33
2022-11-14T08:11:11.550Z,9.53
2022-11-14T08:13:38.716Z,9.50
2022-11-14T08:16:14.245Z,8.63
2022-11-14T08:18:41.770Z,7.10
2022-11-14T08:21:09.003Z,7.77
2022-11-14T08:23:36.133Z,8.13
2022-11-14T08:26:03.408Z,10.10
2022-11-14T08:28:31.002Z,8.50
2022-11-14T08:31:02.459Z,11.53
2022-11-14T08:33:30.310Z,16.33
2022-11-14T08:36:05.020Z,16.33
2022-11-14T08:38:33.981Z,11.67
2022-11-14T08:41:02.332Z,13.30
2022-11-14T08:43:30.702Z,12.87
2022-11-14T08:46:01.647Z,13.40
2022-11-14T08:48:31.437Z,12.37
2022-11-14T08:51:03.504Z,16.03
2022-11-14T08:53:31.149Z,13.37
2022-11-14T08:55:58.416Z,9.67
2022-11-14T08:58:30.136Z,9.57
2022-11-14T09:01:05.482Z,7.60
2022-11-14T09:03:33.692Z,7.00
2022-11-14T09:06:01.968Z,8.30
2022-11-14T09:08:29.787Z,10.07
2022-11-14T09:11:05.210Z,5.77
2022-11-14T09:13:34.826Z,6.90
2022-11-14T09:16:02.598Z,7.73
2022-11-14T09:18:31.156Z,6.63
2022-11-14T09:21:07.374Z,7.73
2022-11-14T09:23:35.323Z,6.60
2022-11-14T09:26:06.517Z,10.17
2022-11-14T09:28:34.166Z,9.27
2022-11-14T09:31:09.600Z,8.25
2022-11-14T09:33:37.002Z,10.57
2022-11-14T09:36:07.275Z,14.07
2022-11-14T09:38:38.504Z,10.17
2022-11-14T09:41:08.811Z,12.77
2022-11-14T09:43:39.234Z,8.93
2022-11-14T09:46:20.554Z,8.00
2022-11-14T09:48:48.164Z,8.25
2022-11-14T09:51:24.790Z,8.30
2022-11-14T09:53:56.397Z,6.60
2022-11-14T09:56:25.749Z,5.70
2022-11-14T09:58:55.653Z,5.20
2022-11-14T10:01:43.367Z,5.30
2022-11-14T10:04:25.672Z,5.55
2022-11-14T10:07:00.361Z,5.88
2022-11-14T10:09:48.269Z,5.18
2022-11-14T10:12:38.960Z,5.50
2022-11-14T10:15:11.583Z,4.70
2022-11-14T10:17:42.016Z,5.88
2022-11-14T10:20:34.889Z,6.83
2022-11-14T10:23:29.865Z,6.15
2022-11-14T10:26:00.240Z,7.13
2022-11-14T10:28:54.934Z,5.22
2022-11-14T10:31:34.003Z,5.40
2022-11-14T10:34:36.269Z,4.78
2022-11-14T10:37:13.286Z,4.60
2022-11-14T10:39:51.391Z,8.63
2022-11-14T10:42:37.423Z,4.97
2022-11-14T10:45:10.390Z,4.80
2022-11-14T10:47:46.229Z,4.03
2022-11-14T10:50:22.950Z,4.57
2022-11-14T10:52:56.134Z,3.70
2022-11-14T10:55:49.795Z,3.20
2022-11-14T10:58:14.826Z,3.10
2022-11-14T11:00:42.113Z,2.72
2022-11-14T11:03:09.416Z,3.00
2022-11-14T11:05:51.362Z,2.90
2022-11-14T11:08:43.695Z,3.00
2022-11-14T11:11:32.404Z,2.88
2022-11-14T11:14:01.044Z,3.10
2022-11-14T11:16:29.622Z,3.53
2022-11-14T11:19:23.442Z,3.50
2022-11-14T11:21:52.783Z,3.50
2022-11-14T11:24:37.046Z,3.53
2022-11-14T11:27:20.358Z,3.25
2022-11-14T11:29:47.522Z,3.45
2022-11-14T11:32:28.229Z,3.35
2022-11-14T11:34:57.353Z,3.30
2022-11-14T11:37:41.618Z,3.10
2022-11-14T11:40:19.298Z,3.03
2022-11-14T11:45:50.768Z,3.20
2022-11-14T11:48:22.830Z,2.75
2022-11-14T11:50:50.369Z,3.00
2022-11-14T11:53:48.286Z,3.00
2022-11-14T11:56:21.506Z,3.00
2022-11-14T11:58:56.668Z,2.83
2022-11-14T12:01:24.653Z,2.55
2022-11-14T12:03:54.110Z,2.80
2022-11-14T12:06:25.386Z,2.78
2022-11-14T12:09:00.258Z,3.17
2022-11-14T12:11:31.308Z,2.75
2022-11-14T12:14:07.283Z,2.83
2022-11-14T12:16:49.520Z,3.67
2022-11-14T12:19:54.060Z,3.00
2022-11-14T12:22:21.174Z,3.20
2022-11-14T12:25:06.573Z,3.55
2022-11-14T12:27:50.004Z,4.43
2022-11-14T12:30:21.890Z,3.17
2022-11-14T12:32:58.223Z,3.13
2022-11-14T12:35:32.332Z,3.20
2022-11-14T12:38:02.737Z,3.03
2022-11-14T12:40:35.796Z,2.75
2022-11-14T12:43:06.745Z,3.13
2022-11-14T12:45:42.673Z,2.80
2022-11-14T12:48:28.941Z,2.85
2022-11-14T12:50:58.591Z,5.35
2022-11-14T12:53:37.462Z,3.17
2022-11-14T12:56:31.564Z,3.30
2022-11-14T12:59:11.154Z,3.45
2022-11-14T13:01:47.331Z,3.17
2022-11-14T13:04:31.624Z,3.13
2022-11-14T13:07:29.768Z,3.10
2022-11-14T13:10:35.564Z,2.92
2022-11-14T13:13:27.934Z,3.20
2022-11-14T13:16:15.838Z,3.20
2022-11-14T13:19:18.237Z,2.70
2022-11-14T13:22:13.246Z,3.10
2022-11-14T13:24:58.522Z,3.35
2022-11-14T13:27:45.125Z,3.58
2022-11-14T13:30:16.184Z,3.65
2022-11-14T13:32:44.509Z,3.58
2022-11-14T13:35:23.435Z,3.10
2022-11-14T13:38:15.310Z,3.15
2022-11-14T13:41:03.880Z,3.45
2022-11-14T13:43:57.011Z,2.80
2022-11-14T13:46:54.808Z,2.83
2022-11-14T13:49:40.284Z,2.83
2022-11-14T13:52:07.554Z,2.53
2022-11-14T13:54:34.846Z,2.50
2022-11-14T13:57:17.315Z,2.70
2022-11-14T14:00:02.874Z,2.58
2022-11-14T14:02:52.380Z,2.97
2022-11-14T14:05:31.691Z,2.60
2022-11-14T14:08:24.623Z,2.88
2022-11-14T14:11:16.469Z,2.53
2022-11-14T14:14:20.940Z,2.75
2022-11-14T14:17:13.813Z,6.05
2022-11-14T14:19:53.490Z,8.95
2022-11-14T14:22:33.475Z,2.90
2022-11-14T14:25:20.442Z,4.28
2022-11-14T14:28:00.208Z,2.85
2022-11-14T14:30:27.989Z,4.55
2022-11-14T14:33:06.873Z,3.63
2022-11-14T14:35:40.446Z,6.88
2022-11-14T14:38:26.071Z,5.72
2022-11-14T14:40:56.533Z,6.28
2022-11-14T14:43:32.571Z,6.28
2022-11-14T14:46:00.656Z,5.63
2022-11-14T14:48:31.206Z,5.63
2022-11-14T14:51:00.098Z,5.50
2022-11-14T14:53:33.001Z,5.65
2022-11-14T14:56:04.653Z,5.40
2022-11-14T14:58:34.180Z,5.93
2022-11-14T15:01:09.225Z,5.22
2022-11-14T15:03:37.873Z,4.72
2022-11-14T15:06:29.924Z,4.80
2022-11-14T15:09:22.933Z,4.38
2022-11-14T15:11:52.934Z,4.47
2022-11-14T15:14:23.497Z,8.27
2022-11-14T15:16:51.707Z,7.18
2022-11-14T15:19:24.931Z,19.08
2022-11-14T15:22:20.462Z,19.60
2022-11-14T15:25:11.516Z,16.20
2022-11-14T15:27:53.345Z,17.15
2022-11-14T15:30:31.184Z,15.40
2022-11-14T15:33:02.066Z,15.10
2022-11-14T15:35:32.349Z,16.75
2022-11-14T15:38:42.160Z,12.18
2022-11-14T15:41:16.674Z,16.10
2022-11-14T15:43:50.359Z,9.20
2022-11-14T15:46:43.464Z,6.43
2022-11-14T15:49:20.448Z,5.20
2022-11-14T15:51:56.868Z,6.43
2022-11-14T15:54:25.560Z,7.65
2022-11-14T15:56:54.264Z,8.57
2022-11-14T15:59:21.648Z,5.38
2022-11-14T16:02:02.192Z,5.32
2022-11-14T16:04:33.205Z,7.35
2022-11-14T16:07:00.808Z,5.55
2022-11-14T16:09:28.039Z,5.20
2022-11-14T16:11:55.191Z,6.50
2022-11-14T16:14:22.360Z,5.45
2022-11-14T16:16:49.693Z,6.15
2022-11-14T16:19:17.377Z,10.50
2022-11-14T16:21:44.833Z,7.90
2022-11-14T16:24:16.439Z,7.22
2022-11-14T16:26:43.952Z,5.75
2022-11-14T16:29:11.248Z,7.95
2022-11-14T16:31:38.595Z,6.80
2022-11-14T16:34:06.365Z,8.50
2022-11-14T16:36:33.533Z,9.40
2022-11-14T16:39:02.835Z,37.38
2022-11-14T16:41:30.211Z,37.80
2022-11-14T16:43:57.843Z,45.03
2022-11-14T16:46:24.977Z,45.10
2022-11-14T16:48:52.345Z,42.17
2022-11-14T16:51:47.849Z,51.20
2022-11-14T16:54:06.667Z,37.90
2022-11-14T16:56:33.787Z,39.88
2022-11-14T16:59:01.445Z,41.03
2022-11-14T17:01:28.725Z,37.00
2022-11-14T17:03:59.977Z,29.37
2022-11-14T17:06:28.041Z,24.33
2022-11-14T17:08:59.540Z,19.00
2022-11-14T17:11:27.320Z,18.03
2022-11-14T17:13:55.517Z,20.50
2022-11-14T17:16:22.812Z,15.87
2022-11-14T17:18:54.745Z,16.67
2022-11-14T17:21:23.038Z,13.93
2022-11-14T17:23:57.388Z,14.20
2022-11-14T17:26:24.612Z,9.70
2022-11-14T17:28:52.173Z,17.07
2022-11-14T17:31:19.701Z,22.53
2022-11-14T17:33:55.097Z,28.57
2022-11-14T17:36:23.338Z,27.00
2022-11-14T17:38:50.635Z,23.53
2022-11-14T17:41:20.888Z,21.33
2022-11-14T17:43:53.523Z,23.00
2022-11-14T17:46:20.699Z,29.47
2022-11-14T17:48:48.064Z,24.93
2022-11-14T17:51:16.340Z,35.90
2022-11-14T17:53:43.914Z,41.13
2022-11-14T17:56:16.110Z,32.10
2022-11-14T17:58:44.482Z,32.57
2022-11-14T18:01:14.115Z,32.47
2022-11-14T18:03:41.720Z,30.20
2022-11-14T18:06:10.673Z,34.87
2022-11-14T18:08:38.226Z,22.87
2022-11-14T18:11:07.986Z,19.00
2022-11-14T18:13:35.203Z,21.50
2022-11-14T18:16:07.424Z,21.57
2022-11-14T18:18:36.160Z,20.17
2022-11-14T18:21:17.407Z,21.10
2022-11-14T18:23:49.771Z,22.93
2022-11-14T18:26:18.795Z,27.63
2022-11-14T18:28:45.997Z,18.10
2022-11-14T18:31:13.863Z,17.17
2022-11-14T18:33:42.004Z,20.83
2022-11-14T18:36:12.498Z,17.43
2022-11-14T18:38:40.421Z,22.33
2022-11-14T18:41:10.139Z,20.70
2022-11-14T18:43:37.316Z,19.50
2022-11-14T18:46:12.185Z,22.80
2022-11-14T18:48:41.952Z,32.07
2022-11-14T18:51:15.091Z,74.27
2022-11-14T18:53:42.659Z,82.60
2022-11-14T18:56:14.526Z,74.23
2022-11-14T18:58:42.875Z,73.63
2022-11-14T19:01:26.076Z,69.53
2022-11-14T19:03:56.828Z,66.33
2022-11-14T19:06:24.166Z,63.50
2022-11-14T19:08:55.631Z,50.20
2022-11-14T19:11:41.545Z,38.37
2022-11-14T19:14:08.710Z,37.33
2022-11-14T19:16:37.357Z,36.70
2022-11-14T19:19:08.150Z,37.53
2022-11-14T19:21:36.298Z,34.00
2022-11-14T19:24:04.013Z,28.40
2022-11-14T19:26:31.388Z,22.33
2022-11-14T19:29:03.850Z,20.50
2022-11-14T19:31:31.323Z,19.00
2022-11-14T19:33:58.928Z,20.63
2022-11-14T19:36:57.730Z,17.23
2022-11-14T19:39:13.853Z,17.23
2022-11-14T19:41:41.062Z,16.03
2022-11-14T19:44:08.484Z,20.53
2022-11-14T19:46:36.803Z,17.20
2022-11-14T19:49:04.909Z,16.57
2022-11-14T19:51:32.894Z,18.70
2022-11-14T19:54:01.595Z,19.13
2022-11-14T19:56:28.970Z,19.27
2022-11-14T19:58:56.638Z,20.87
2022-11-14T20:01:26.672Z,18.50
2022-11-14T20:03:59.087Z,14.97
2022-11-14T20:06:32.587Z,15.30
2022-11-14T20:09:03.113Z,22.00
2022-11-14T20:11:31.179Z,17.77
2022-11-14T20:13:59.146Z,20.53
2022-11-14T20:16:29.128Z,21.10
2022-11-14T20:18:59.942Z,25.47
2022-11-14T20:21:29.401Z,25.13
2022-11-14T20:23:56.871Z,21.00
2022-11-14T20:26:24.859Z,18.40
2022-11-14T20:28:53.914Z,16.50
2022-11-14T20:31:24.351Z,16.00
2022-11-14T20:33:52.896Z,14.20
2022-11-14T20:36:22.521Z,13.30
2022-11-14T20:38:50.371Z,15.37
2022-11-14T20:41:18.202Z,15.83
2022-11-14T20:43:45.628Z,14.57
2022-11-14T20:46:15.565Z,15.40
2022-11-14T20:48:43.815Z,15.23
2022-11-14T20:51:20.285Z,14.00
2022-11-14T20:53:48.940Z,19.10
2022-11-14T20:56:17.177Z,23.67
2022-11-14T20:58:46.312Z,24.40
2022-11-14T21:01:14.316Z,23.13
2022-11-14T21:03:41.936Z,23.20
2022-11-14T21:06:11.577Z,27.40
2022-11-14T21:08:39.007Z,25.63
2022-11-14T21:11:18.068Z,21.03
2022-11-14T21:13:57.768Z,24.13
2022-11-14T21:16:31.946Z,24.13
2022-11-14T21:19:00.440Z,21.40
2022-11-14T21:21:28.627Z,21.80
2022-11-14T21:23:56.453Z,25.20
2022-11-14T21:26:24.727Z,20.70
2022-11-14T21:28:57.466Z,17.37
2022-11-14T21:31:33.376Z,18.73
2022-11-14T21:34:03.501Z,17.77
2022-11-14T21:36:44.916Z,16.57
2022-11-14T21:39:15.004Z,15.73
2022-11-14T21:41:43.335Z,16.47
2022-11-14T21:44:13.459Z,14.03
2022-11-14T21:46:41.343Z,16.50
2022-11-14T21:49:09.403Z,17.30
2022-11-14T21:51:36.637Z,17.40
2022-11-14T21:54:05.055Z,16.27
2022-11-14T21:56:34.006Z,17.37
2022-11-14T21:59:16.613Z,17.70
